Time;durP1;ratioP1;P1;durP2;ratioP2;P2;SDS_P1;SDS_P2;PMS_P1;PMS_P2;Temp;Humidity;BMP_temperature;BMP_pressure;BME280_temperature;BME280_humidity;BME280_pressure;Samples;Min_cycle;Max_cycle;Signal;HPM_P1;HPM_P2
2023/10/27 00:00:00;;;;;;;36.22;29.02;;;;;21.70;98168.00;;;;2061079;28;20294;-57
2023/10/27 00:01:03;;;;;;;30.90;27.30;;;;;21.70;98170.00;;;;2057811;28;20218;-57
2023/10/27 00:02:03;;;;;;;35.92;28.85;;;;;21.70;98169.00;;;;2067756;28;20301;-57
2023/10/27 00:03:04;;;;;;;32.87;28.27;;;;;21.70;98165.00;;;;2053798;28;20816;-57
2023/10/27 00:04:05;;;;;;;30.00;26.37;;;;;21.70;98156.00;;;;2060451;28;20227;-56
2023/10/27 00:05:06;;;;;;;32.47;26.60;;;;;21.70;98161.00;;;;2059607;28;20578;-57
2023/10/27 00:06:06;;;;;;;33.13;27.17;;;;;21.70;98160.00;;;;2054141;28;20317;-57
2023/10/27 00:07:07;;;;;;;34.27;26.63;;;;;21.70;98166.00;;;;2061271;28;20215;-56
2023/10/27 00:08:07;;;;;;;32.10;26.73;;;;;21.70;98170.00;;;;2060624;28;20273;-56
2023/10/27 00:09:07;;;;;;;30.93;26.60;;;;;21.40;98163.00;;;;2061062;28;20235;-56
2023/10/27 00:10:08;;;;;;;29.47;25.93;;;;;21.70;98156.00;;;;2061264;28;20243;-56
2023/10/27 00:11:08;;;;;;;28.40;24.07;;;;;21.60;98150.00;;;;2049543;28;20223;-56
2023/10/27 00:12:08;;;;;;;32.63;24.80;;;;;21.70;98160.00;;;;2061820;28;20246;-55
2023/10/27 00:13:09;;;;;;;29.53;24.57;;;;;21.60;98156.00;;;;2069005;28;20218;-56
2023/10/27 00:14:09;;;;;;;30.80;25.07;;;;;21.60;98150.00;;;;2060883;28;20215;-56
2023/10/27 00:15:09;;;;;;;30.23;24.47;;;;;21.60;98153.00;;;;2059468;28;20222;-56
2023/10/27 00:16:10;;;;;;;31.20;24.77;;;;;21.70;98157.00;;;;2058884;28;20218;-54
2023/10/27 00:17:10;;;;;;;29.63;23.60;;;;;21.70;98152.00;;;;2061286;28;20222;-57
2023/10/27 00:18:11;;;;;;;27.50;23.37;;;;;21.70;98158.00;;;;2067791;28;20736;-57
2023/10/27 00:19:11;;;;;;;28.13;24.30;;;;;21.70;98162.00;;;;2068647;28;20756;-57
2023/10/27 00:20:12;;;;;;;25.07;21.90;;;;;21.70;98159.00;;;;2061743;28;20218;-57
2023/10/27 00:21:12;;;;;;;27.70;23.73;;;;;21.60;98156.00;;;;2051260;28;20261;-57
2023/10/27 00:22:13;;;;;;;26.87;22.33;;;;;21.60;98162.00;;;;2060931;28;20462;-56
2023/10/27 00:23:15;;;;;;;25.90;22.20;;;;;21.60;98162.00;;;;2066219;28;20272;-56
2023/10/27 00:24:15;;;;;;;24.98;20.40;;;;;21.60;98029.00;;;;2060885;28;20245;-55
2023/10/27 00:25:15;;;;;;;23.83;20.40;;;;;21.60;98159.00;;;;2051103;28;20572;-56
2023/10/27 00:26:16;;;;;;;25.47;21.40;;;;;21.60;98154.00;;;;2060991;28;20211;-54
2023/10/27 00:27:16;;;;;;;27.37;23.27;;;;;21.60;98160.00;;;;2061456;28;20213;-54
2023/10/27 00:28:16;;;;;;;26.23;21.93;;;;;21.60;98161.00;;;;2061340;28;20203;-54
2023/10/27 00:29:17;;;;;;;25.37;20.73;;;;;21.60;98159.00;;;;2061197;28;20203;-56
2023/10/27 00:30:17;;;;;;;22.80;20.30;;;;;21.60;98155.00;;;;2051597;28;20203;-56
2023/10/27 00:31:18;;;;;;;21.33;18.90;;;;;21.60;98155.00;;;;2060447;28;20211;-56
2023/10/27 00:32:18;;;;;;;23.03;20.00;;;;;21.60;98156.00;;;;2061373;28;20233;-57
2023/10/27 00:33:19;;;;;;;22.90;18.77;;;;;21.60;98159.00;;;;2061148;28;20199;-55
2023/10/27 00:34:19;;;;;;;22.93;19.97;;;;;21.60;98159.00;;;;2061477;28;20541;-56
2023/10/27 00:35:19;;;;;;;24.90;20.03;;;;;21.60;98159.00;;;;2056586;28;20202;-57
2023/10/27 00:36:20;;;;;;;26.17;20.10;;;;;21.60;98154.00;;;;2061080;28;20261;-57
2023/10/27 00:37:20;;;;;;;23.27;19.70;;;;;21.10;98156.00;;;;2060302;28;20207;-57
2023/10/27 00:38:21;;;;;;;23.50;19.83;;;;;21.60;98159.00;;;;2061457;28;20254;-54
2023/10/27 00:39:21;;;;;;;23.23;19.20;;;;;21.60;98147.00;;;;2060006;28;20214;-56
2023/10/27 00:40:21;;;;;;;22.57;19.00;;;;;21.60;98159.00;;;;2051563;28;20234;-57
2023/10/27 00:41:24;;;;;;;21.07;18.53;;;;;21.60;98153.00;;;;2059933;28;20231;-56
2023/10/27 00:42:24;;;;;;;20.90;18.10;;;;;21.60;98154.00;;;;2063670;28;20218;-57
2023/10/27 00:43:24;;;;;;;21.90;19.50;;;;;21.60;98153.00;;;;2052527;28;20212;-57
2023/10/27 00:44:24;;;;;;;21.57;18.03;;;;;21.60;98150.00;;;;2059628;28;20210;-56
2023/10/27 00:45:25;;;;;;;21.27;17.63;;;;;21.60;98149.00;;;;2057117;28;20272;-56
2023/10/27 00:46:25;;;;;;;20.10;17.87;;;;;21.60;98142.00;;;;2059973;28;20232;-53
2023/10/27 00:47:26;;;;;;;22.00;18.33;;;;;21.60;98146.00;;;;2058991;28;20325;-56
2023/10/27 00:48:26;;;;;;;19.03;16.73;;;;;21.60;98150.00;;;;2065864;28;20234;-57
2023/10/27 00:49:27;;;;;;;21.90;17.67;;;;;21.60;98147.00;;;;2062323;28;20219;-57
2023/10/27 00:50:28;;;;;;;18.85;16.42;;;;;21.60;98146.00;;;;2049507;28;20397;-56
2023/10/27 00:51:28;;;;;;;17.80;15.77;;;;;21.60;98124.00;;;;2059944;28;20234;-56
2023/10/27 00:52:29;;;;;;;18.37;16.17;;;;;21.60;98146.00;;;;2065594;28;20244;-55
2023/10/27 00:53:29;;;;;;;20.70;16.97;;;;;21.60;98150.00;;;;2063805;28;20310;-57
2023/10/27 00:54:30;;;;;;;18.02;15.98;;;;;21.60;98144.00;;;;2058485;28;20234;-56
2023/10/27 00:55:31;;;;;;;19.50;17.23;;;;;21.60;98145.00;;;;2039950;28;20677;-56
2023/10/27 00:56:31;;;;;;;19.23;17.10;;;;;21.60;98146.00;;;;2044003;28;20227;-57
2023/10/27 00:57:31;;;;;;;18.33;15.77;;;;;21.60;98127.00;;;;2049858;28;20711;-55
2023/10/27 00:58:32;;;;;;;17.67;15.77;;;;;21.60;98146.00;;;;2056587;28;20225;-54
2023/10/27 00:59:32;;;;;;;18.13;15.47;;;;;21.50;98152.00;;;;2056825;28;20223;-54
2023/10/27 01:00:32;;;;;;;18.23;15.37;;;;;21.50;98141.00;;;;2023958;28;20224;-56
2023/10/27 01:01:33;;;;;;;20.60;15.03;;;;;21.50;98146.00;;;;2047209;28;20231;-55
2023/10/27 01:02:33;;;;;;;17.50;15.40;;;;;21.60;98142.00;;;;2059139;28;20218;-57
2023/10/27 01:03:34;;;;;;;19.83;15.63;;;;;21.60;98145.00;;;;2067524;28;20691;-56
2023/10/27 01:04:34;;;;;;;17.40;14.87;;;;;21.50;98147.00;;;;2061069;28;20238;-57
2023/10/27 01:05:34;;;;;;;16.93;15.07;;;;;21.60;98144.00;;;;2051373;28;20227;-55
2023/10/27 01:06:34;;;;;;;18.07;16.10;;;;;21.60;98144.00;;;;2068578;28;20257;-55
2023/10/27 01:07:35;;;;;;;17.30;14.43;;;;;21.50;98136.00;;;;2064956;28;20297;-55
2023/10/27 01:08:36;;;;;;;16.05;14.15;;;;;21.50;98151.00;;;;2060754;28;20221;-56
2023/10/27 01:09:36;;;;;;;17.90;14.93;;;;;21.50;98145.00;;;;2067384;28;20225;-56
2023/10/27 01:10:36;;;;;;;15.97;14.20;;;;;21.50;98136.00;;;;2053732;28;20301;-54
2023/10/27 01:11:37;;;;;;;15.73;13.90;;;;;21.50;98138.00;;;;2059554;28;20230;-56
2023/10/27 01:12:37;;;;;;;18.57;15.13;;;;;21.50;98136.00;;;;2059692;28;20309;-57
2023/10/27 01:13:37;;;;;;;16.53;14.00;;;;;21.60;98145.00;;;;2060450;28;20230;-55
2023/10/27 01:14:38;;;;;;;17.50;14.47;;;;;21.50;98141.00;;;;2057014;28;20790;-55
2023/10/27 01:15:38;;;;;;;16.60;14.43;;;;;21.50;98142.00;;;;2056797;28;20686;-56
2023/10/27 01:16:39;;;;;;;16.63;13.80;;;;;21.50;98162.00;;;;2068577;28;20815;-56
2023/10/27 01:17:39;;;;;;;17.23;13.33;;;;;21.50;98145.00;;;;2064032;28;20686;-54
2023/10/27 01:18:39;;;;;;;14.57;12.87;;;;;21.50;98132.00;;;;2064887;28;20769;-54
2023/10/27 01:19:40;;;;;;;13.80;12.40;;;;;21.50;98137.00;;;;2061206;28;20724;-56
2023/10/27 01:20:40;;;;;;;15.20;13.27;;;;;21.50;98137.00;;;;2047068;28;20703;-56
2023/10/27 01:21:40;;;;;;;15.80;14.10;;;;;21.50;98141.00;;;;2056816;28;20257;-55
2023/10/27 01:22:42;;;;;;;13.77;12.33;;;;;21.50;98147.00;;;;2060974;28;20624;-59
2023/10/27 01:23:42;;;;;;;14.93;12.80;;;;;21.50;98151.00;;;;2061035;28;20315;-56
2023/10/27 01:24:43;;;;;;;15.27;12.53;;;;;21.50;98135.00;;;;2066621;28;20313;-56
2023/10/27 01:25:43;;;;;;;15.43;13.20;;;;;21.50;98142.00;;;;2056697;28;20265;-56
2023/10/27 01:26:44;;;;;;;14.63;12.53;;;;;21.50;98143.00;;;;2061474;28;20229;-56
2023/10/27 01:27:44;;;;;;;14.90;13.10;;;;;21.50;98139.00;;;;2063198;28;20222;-55
2023/10/27 01:28:44;;;;;;;16.43;12.93;;;;;21.50;98138.00;;;;2061011;28;20229;-56
2023/10/27 01:29:45;;;;;;;16.37;12.67;;;;;21.50;98144.00;;;;2059552;28;20232;-54
2023/10/27 01:30:45;;;;;;;14.03;12.17;;;;;21.50;98144.00;;;;2051129;28;21008;-56
2023/10/27 01:31:45;;;;;;;14.73;12.20;;;;;21.50;98136.00;;;;2057774;28;20238;-54
2023/10/27 01:32:46;;;;;;;14.70;12.97;;;;;21.50;98140.00;;;;2060297;28;20237;-55
2023/10/27 01:33:47;;;;;;;15.20;12.27;;;;;21.50;98142.00;;;;2060804;28;20273;-57
2023/10/27 01:34:47;;;;;;;13.47;12.07;;;;;21.50;98141.00;;;;2060449;28;20223;-58
2023/10/27 01:35:47;;;;;;;14.10;11.77;;;;;21.50;98143.00;;;;2049585;28;20932;-56
2023/10/27 01:36:48;;;;;;;12.20;10.90;;;;;21.50;98032.00;;;;2055840;28;20349;-55
2023/10/27 01:37:48;;;;;;;12.30;11.10;;;;;21.50;98147.00;;;;2059611;28;20687;-54
2023/10/27 01:38:48;;;;;;;11.13;10.03;;;;;21.50;98144.00;;;;2061678;28;20242;-56
2023/10/27 01:39:49;;;;;;;13.53;10.60;;;;;21.50;98132.00;;;;2060717;28;20258;-56
2023/10/27 01:40:49;;;;;;;12.30;11.00;;;;;21.50;98135.00;;;;2049352;28;20222;-57
2023/10/27 01:41:50;;;;;;;12.10;10.83;;;;;21.50;98136.00;;;;2059316;28;20466;-57
2023/10/27 01:42:50;;;;;;;16.20;11.73;;;;;21.50;98139.00;;;;2055731;28;20219;-55
2023/10/27 01:43:50;;;;;;;12.20;10.90;;;;;21.50;98131.00;;;;2058188;28;20217;-55
2023/10/27 01:44:53;;;;;;;12.73;11.00;;;;;21.50;98136.00;;;;2059106;28;20219;-57
2023/10/27 01:45:53;;;;;;;11.75;10.27;;;;;21.50;98135.00;;;;2048151;28;20239;-54
2023/10/27 01:46:54;;;;;;;11.40;10.13;;;;;21.50;98133.00;;;;2066664;28;20878;-56
2023/10/27 01:47:54;;;;;;;12.40;10.60;;;;;21.50;98131.00;;;;2057687;28;20899;-57
2023/10/27 01:48:54;;;;;;;12.83;11.00;;;;;21.50;98133.00;;;;2057848;28;20210;-57
2023/10/27 01:49:55;;;;;;;11.27;10.07;;;;;21.50;98123.00;;;;2060230;28;20265;-54
2023/10/27 01:50:55;;;;;;;12.67;10.30;;;;;21.50;98124.00;;;;2057136;28;20320;-56
2023/10/27 01:51:55;;;;;;;11.47;10.27;;;;;21.50;98135.00;;;;2068127;28;20261;-55
2023/10/27 01:52:56;;;;;;;11.00;9.70;;;;;21.50;98132.00;;;;2060720;28;20219;-57
2023/10/27 01:53:56;;;;;;;10.67;9.57;;;;;21.50;98141.00;;;;2059079;28;20298;-57
2023/10/27 01:54:57;;;;;;;12.70;10.47;;;;;21.50;98137.00;;;;2060310;28;20225;-56
2023/10/27 01:55:58;;;;;;;10.43;9.27;;;;;21.50;98134.00;;;;2048827;28;20329;-56
2023/10/27 01:56:58;;;;;;;11.30;10.00;;;;;21.50;98134.00;;;;2065873;28;20218;-54
2023/10/27 01:57:58;;;;;;;10.57;8.97;;;;;21.50;98137.00;;;;2061854;28;20218;-53
2023/10/27 01:58:59;;;;;;;10.90;9.63;;;;;21.50;98130.00;;;;2054377;28;20227;-54
2023/10/27 01:59:59;;;;;;;12.13;10.40;;;;;21.50;98140.00;;;;2052972;28;20214;-54
2023/10/27 02:01:00;;;;;;;9.90;8.90;;;;;21.50;98130.00;;;;2049253;28;20231;-53
2023/10/27 02:02:00;;;;;;;11.13;9.67;;;;;21.50;98136.00;;;;2058914;28;20451;-57
2023/10/27 02:03:01;;;;;;;11.53;9.83;;;;;21.50;98127.00;;;;2063593;28;20218;-56
2023/10/27 02:04:01;;;;;;;9.80;8.80;;;;;21.50;98131.00;;;;2065956;28;20233;-56
2023/10/27 02:05:05;;;;;;;9.90;8.80;;;;;21.50;98132.00;;;;2060323;28;20211;-56
2023/10/27 02:06:05;;;;;;;10.85;8.85;;;;;21.50;98140.00;;;;2044848;28;20645;-54
2023/10/27 02:07:06;;;;;;;10.37;9.27;;;;;21.50;98131.00;;;;2059759;28;20273;-55
2023/10/27 02:08:06;;;;;;;10.70;9.37;;;;;21.50;98133.00;;;;2066414;28;20241;-56
2023/10/27 02:09:06;;;;;;;11.07;8.60;;;;;21.50;98141.00;;;;2054306;28;20230;-57
2023/10/27 02:10:07;;;;;;;10.53;9.40;;;;;21.50;98131.00;;;;2061726;28;20218;-57
2023/10/27 02:11:08;;;;;;;9.90;8.50;;;;;21.40;98126.00;;;;2049222;28;20230;-55
2023/10/27 02:12:09;;;;;;;10.80;8.67;;;;;21.50;98135.00;;;;2059267;28;20223;-54
2023/10/27 02:13:10;;;;;;;10.80;9.40;;;;;21.50;98155.00;;;;2061003;28;20257;-55
2023/10/27 02:14:11;;;;;;;9.70;8.70;;;;;21.50;98142.00;;;;2060425;28;20576;-56
2023/10/27 02:15:11;;;;;;;12.17;8.93;;;;;21.50;98133.00;;;;2064345;28;20222;-56
2023/10/27 02:16:11;;;;;;;9.47;7.97;;;;;21.50;98127.00;;;;2058210;28;20249;-56
2023/10/27 02:17:12;;;;;;;7.87;7.07;;;;;21.50;98134.00;;;;2062892;28;20221;-57
2023/10/27 02:18:12;;;;;;;8.90;7.70;;;;;21.50;98124.00;;;;2060328;28;20227;-54
2023/10/27 02:19:13;;;;;;;8.63;7.47;;;;;21.50;98131.00;;;;2060929;28;20219;-55
2023/10/27 02:20:13;;;;;;;9.40;8.50;;;;;21.50;98128.00;;;;2068248;28;20304;-57
2023/10/27 02:21:13;;;;;;;8.80;7.90;;;;;21.40;98128.00;;;;2056312;28;20896;-56
2023/10/27 02:22:14;;;;;;;12.23;8.50;;;;;21.40;98200.00;;;;2067071;28;20619;-57
2023/10/27 02:23:17;;;;;;;9.00;7.90;;;;;21.50;98165.00;;;;2052954;28;21054;-53
2023/10/27 02:24:17;;;;;;;10.05;7.78;;;;;21.40;98131.00;;;;2054460;28;20242;-55
2023/10/27 02:25:18;;;;;;;9.23;8.07;;;;;21.40;98016.00;;;;2048260;28;20988;-57
2023/10/27 02:26:19;;;;;;;8.80;7.90;;;;;21.40;98133.00;;;;2067576;28;20830;-56
2023/10/27 02:27:19;;;;;;;7.97;7.05;;;;;21.40;98124.00;;;;2066730;28;20218;-56
2023/10/27 02:28:20;;;;;;;11.00;8.30;;;;;21.40;98125.00;;;;2060825;28;20271;-53
2023/10/27 02:29:20;;;;;;;9.43;8.23;;;;;21.40;98121.00;;;;2058937;28;20211;-56
2023/10/27 02:30:21;;;;;;;9.50;7.37;;;;;21.40;98118.00;;;;2043373;28;20216;-54
2023/10/27 02:31:21;;;;;;;10.30;8.10;;;;;21.40;98122.00;;;;2060490;28;20222;-55
2023/10/27 02:32:21;;;;;;;7.80;7.00;;;;;21.40;98120.00;;;;2065948;28;20221;-56
2023/10/27 02:33:22;;;;;;;8.50;7.60;;;;;21.40;98119.00;;;;2060730;28;20683;-55
2023/10/27 02:34:22;;;;;;;8.20;7.27;;;;;21.40;98119.00;;;;2064460;28;20908;-56
2023/10/27 02:35:25;;;;;;;8.67;7.73;;;;;21.40;98116.00;;;;2050953;28;20770;-56
2023/10/27 02:36:25;;;;;;;8.18;7.38;;;;;21.40;98118.00;;;;2067171;28;20305;-54
2023/10/27 02:37:26;;;;;;;8.17;7.30;;;;;21.40;98116.00;;;;2066573;28;20214;-56
2023/10/27 02:38:26;;;;;;;8.63;6.67;;;;;21.40;98114.00;;;;2054285;28;20199;-56
2023/10/27 02:39:27;;;;;;;8.43;6.80;;;;;21.40;98112.00;;;;2065976;28;20206;-57
2023/10/27 02:40:27;;;;;;;7.70;6.87;;;;;21.40;98115.00;;;;2043453;28;20208;-57
2023/10/27 02:41:27;;;;;;;7.83;6.93;;;;;21.40;98109.00;;;;2065210;28;20672;-57
2023/10/27 02:42:28;;;;;;;7.63;6.83;;;;;21.40;98107.00;;;;2059199;28;20330;-53
2023/10/27 02:43:28;;;;;;;7.23;6.17;;;;;21.40;98104.00;;;;2061258;28;20211;-56
2023/10/27 02:44:28;;;;;;;10.20;7.33;;;;;21.40;98105.00;;;;2054054;28;20204;-56
2023/10/27 02:45:29;;;;;;;7.43;6.20;;;;;21.40;98109.00;;;;2050551;28;20284;-56
2023/10/27 02:46:32;;;;;;;7.47;6.25;;;;;21.40;98106.00;;;;2062665;28;20217;-55
2023/10/27 02:47:32;;;;;;;9.20;6.40;;;;;21.40;98104.00;;;;2054396;28;20289;-55
2023/10/27 02:48:33;;;;;;;8.70;6.40;;;;;21.40;98100.00;;;;2061165;28;20313;-56
2023/10/27 02:49:33;;;;;;;8.97;6.37;;;;;21.40;98102.00;;;;2051765;28;20207;-55
2023/10/27 02:50:33;;;;;;;7.20;5.90;;;;;21.40;98096.00;;;;2047193;28;20217;-56
2023/10/27 02:51:34;;;;;;;6.83;6.10;;;;;21.40;98096.00;;;;2053549;28;21185;-56
2023/10/27 02:52:34;;;;;;;8.27;6.67;;;;;21.40;98095.00;;;;2053616;28;20760;-56
2023/10/27 02:53:34;;;;;;;7.70;6.13;;;;;21.40;98092.00;;;;2066596;28;20206;-56
2023/10/27 02:54:35;;;;;;;7.20;5.77;;;;;21.40;98099.00;;;;2062120;28;20238;-55
2023/10/27 02:55:36;;;;;;;7.10;6.07;;;;;21.40;98093.00;;;;2053506;28;20231;-55
2023/10/27 02:56:36;;;;;;;6.85;5.90;;;;;21.40;98094.00;;;;2061059;28;20222;-56
2023/10/27 02:57:36;;;;;;;6.33;5.50;;;;;21.40;98089.00;;;;2068766;28;20304;-55
2023/10/27 02:58:37;;;;;;;8.60;5.93;;;;;21.40;98082.00;;;;2061247;28;20233;-55
2023/10/27 02:59:37;;;;;;;8.23;6.07;;;;;21.40;98081.00;;;;2060997;28;20207;-56
2023/10/27 03:00:41;;;;;;;7.00;5.90;;;;;21.40;98085.00;;;;2051984;28;20577;-55
2023/10/27 03:01:47;;;;;;;6.78;5.95;;;;;21.40;98080.00;;;;2068671;28;20249;-55
2023/10/27 03:02:48;;;;;;;6.28;5.60;;;;;21.40;98079.00;;;;2069551;28;20345;-56
2023/10/27 03:03:49;;;;;;;8.40;6.00;;;;;21.40;98071.00;;;;2061990;28;21017;-56
2023/10/27 03:04:51;;;;;;;6.55;5.47;;;;;21.40;98076.00;;;;2061941;28;20250;-56
2023/10/27 03:05:52;;;;;;;7.18;5.72;;;;;21.40;98080.00;;;;2048558;28;20230;-57
2023/10/27 03:06:52;;;;;;;7.10;5.43;;;;;21.40;98074.00;;;;2062059;28;20219;-56
2023/10/27 03:07:52;;;;;;;6.07;5.13;;;;;21.40;98071.00;;;;2065455;28;20277;-56
2023/10/27 03:08:53;;;;;;;5.47;4.70;;;;;21.40;98081.00;;;;2057011;28;20223;-56
2023/10/27 03:09:53;;;;;;;6.03;5.30;;;;;21.40;98062.00;;;;2061641;28;20219;-56
2023/10/27 03:10:53;;;;;;;6.23;4.80;;;;;21.40;98063.00;;;;2045967;28;20231;-56
2023/10/27 03:11:54;;;;;;;6.60;5.80;;;;;21.40;98062.00;;;;2056970;28;20226;-56
2023/10/27 03:12:54;;;;;;;5.83;4.80;;;;;21.40;98071.00;;;;2060446;28;20220;-56
2023/10/27 03:13:55;;;;;;;6.80;5.57;;;;;21.40;98060.00;;;;2061342;28;21016;-56
2023/10/27 03:14:56;;;;;;;6.67;5.30;;;;;21.40;98060.00;;;;2061333;28;20798;-56
2023/10/27 03:15:59;;;;;;;6.73;5.60;;;;;21.40;98065.00;;;;2049545;28;20292;-56
2023/10/27 03:17:00;;;;;;;6.50;5.28;;;;;21.40;98058.00;;;;2068427;28;20540;-56
2023/10/27 03:18:00;;;;;;;6.13;5.33;;;;;21.40;98052.00;;;;2069014;28;20271;-55
2023/10/27 03:19:01;;;;;;;5.50;4.70;;;;;21.40;98053.00;;;;2061366;28;20203;-55
2023/10/27 03:20:04;;;;;;;5.80;4.40;;;;;21.40;98057.00;;;;2061774;28;20266;-55
2023/10/27 03:21:05;;;;;;;6.20;4.60;;;;;21.40;98050.00;;;;2051625;28;20227;-56
2023/10/27 03:22:05;;;;;;;6.43;5.10;;;;;21.40;98059.00;;;;2067807;28;20211;-55
2023/10/27 03:23:06;;;;;;;6.20;4.50;;;;;21.40;98023.00;;;;2060969;28;20537;-56
2023/10/27 03:24:06;;;;;;;5.10;4.40;;;;;21.40;98052.00;;;;2061557;28;20270;-55
2023/10/27 03:25:07;;;;;;;6.67;4.70;;;;;21.40;98056.00;;;;2058507;28;20227;-55
2023/10/27 03:26:07;;;;;;;7.13;4.40;;;;;21.40;98057.00;;;;2049235;28;20227;-55
2023/10/27 03:27:07;;;;;;;7.37;5.07;;;;;21.40;98057.00;;;;2062034;28;20234;-56
2023/10/27 03:28:08;;;;;;;5.93;5.00;;;;;21.40;98054.00;;;;2061570;28;20254;-56
2023/10/27 03:29:08;;;;;;;6.50;5.60;;;;;21.40;98060.00;;;;2068840;28;20264;-55
2023/10/27 03:30:09;;;;;;;5.50;4.40;;;;;21.40;98053.00;;;;2059586;28;21014;-56
2023/10/27 03:31:12;;;;;;;5.60;4.30;;;;;21.40;98056.00;;;;2053324;28;20237;-56
2023/10/27 03:32:13;;;;;;;5.07;4.57;;;;;21.40;98054.00;;;;2052997;28;20840;-55
2023/10/27 03:33:14;;;;;;;6.17;4.70;;;;;21.40;98056.00;;;;2054394;28;20246;-55
2023/10/27 03:34:14;;;;;;;5.05;3.95;;;;;21.40;98060.00;;;;2061726;28;20215;-55
2023/10/27 03:35:15;;;;;;;5.63;5.03;;;;;21.40;98049.00;;;;2058658;28;20250;-55
2023/10/27 03:36:15;;;;;;;6.70;4.07;;;;;21.30;98057.00;;;;2051188;28;20253;-55
2023/10/27 03:37:16;;;;;;;6.30;4.83;;;;;21.30;98059.00;;;;2060866;28;20249;-56
2023/10/27 03:38:17;;;;;;;5.97;4.70;;;;;21.40;98053.00;;;;2065018;28;20280;-55
2023/10/27 03:39:17;;;;;;;4.63;4.22;;;;;21.30;98054.00;;;;2062516;28;20302;-55
2023/10/27 03:40:18;;;;;;;6.80;4.53;;;;;21.40;98055.00;;;;2052830;28;20234;-56
2023/10/27 03:41:18;;;;;;;6.23;4.80;;;;;21.40;98060.00;;;;2061476;28;20230;-55
2023/10/27 03:42:18;;;;;;;5.53;4.37;;;;;21.40;98058.00;;;;2061713;28;20226;-56
2023/10/27 03:43:19;;;;;;;7.23;4.13;;;;;21.40;98063.00;;;;2066103;28;20236;-56
2023/10/27 03:44:19;;;;;;;5.20;4.47;;;;;21.30;98051.00;;;;2062340;28;20223;-56
2023/10/27 03:45:20;;;;;;;6.27;4.07;;;;;21.40;98057.00;;;;2049963;28;20386;-56
2023/10/27 03:46:20;;;;;;;5.50;4.50;;;;;21.30;98059.00;;;;2068952;28;20222;-55
2023/10/27 03:47:20;;;;;;;4.33;3.83;;;;;21.30;98054.00;;;;2063701;28;20226;-56
2023/10/27 03:48:21;;;;;;;5.00;3.87;;;;;21.40;98060.00;;;;2053108;28;20230;-55
2023/10/27 03:49:21;;;;;;;4.40;4.00;;;;;21.40;98058.00;;;;2061515;28;20246;-55
2023/10/27 03:50:21;;;;;;;3.93;3.47;;;;;21.30;98060.00;;;;2055638;28;20275;-56
2023/10/27 03:51:22;;;;;;;5.93;3.80;;;;;21.40;98057.00;;;;2058484;28;20227;-56
2023/10/27 03:52:22;;;;;;;6.07;3.83;;;;;21.30;98050.00;;;;2058220;28;20250;-55
2023/10/27 03:53:22;;;;;;;4.70;3.77;;;;;21.40;98056.00;;;;2054546;28;20230;-55
2023/10/27 03:54:22;;;;;;;5.83;4.13;;;;;21.40;98059.00;;;;2053735;28;20219;-55
2023/10/27 03:55:23;;;;;;;5.93;3.90;;;;;21.30;98062.00;;;;2056666;28;20234;-55
2023/10/27 03:56:23;;;;;;;6.07;4.53;;;;;21.30;98057.00;;;;2068777;28;20224;-56
2023/10/27 03:57:23;;;;;;;6.00;3.90;;;;;21.40;98058.00;;;;2070990;28;20213;-56
2023/10/27 03:58:24;;;;;;;4.97;4.00;;;;;21.30;98057.00;;;;2053613;28;20309;-56
2023/10/27 03:59:24;;;;;;;4.20;3.23;;;;;21.40;98059.00;;;;2055190;28;20250;-55
2023/10/27 04:00:25;;;;;;;7.63;3.80;;;;;21.30;98056.00;;;;2043654;28;20227;-56
2023/10/27 04:01:28;;;;;;;4.13;3.73;;;;;21.30;98052.00;;;;2060616;28;20226;-56
2023/10/27 04:02:28;;;;;;;4.53;3.70;;;;;21.30;98056.00;;;;2064672;28;20449;-57
2023/10/27 04:03:31;;;;;;;4.70;3.40;;;;;21.30;98061.00;;;;2061184;28;20207;-58
2023/10/27 04:04:32;;;;;;;5.20;3.60;;;;;21.30;98053.00;;;;2060417;28;20217;-56
2023/10/27 04:05:33;;;;;;;4.53;3.90;;;;;21.40;98057.00;;;;2050903;28;20207;-56
2023/10/27 04:06:33;;;;;;;5.90;4.20;;;;;21.30;98051.00;;;;2058686;28;20233;-55
2023/10/27 04:07:33;;;;;;;3.80;3.20;;;;;21.30;98052.00;;;;2066335;28;20210;-57
2023/10/27 04:08:34;;;;;;;4.87;3.37;;;;;21.30;98045.00;;;;2059478;28;20223;-56
2023/10/27 04:09:34;;;;;;;3.17;2.77;;;;;21.10;98051.00;;;;2055042;28;20219;-55
2023/10/27 04:10:35;;;;;;;5.60;3.90;;;;;21.30;98050.00;;;;2042763;28;20212;-57
2023/10/27 04:11:35;;;;;;;3.60;3.00;;;;;21.30;98048.00;;;;2061453;28;20210;-57
2023/10/27 04:12:36;;;;;;;3.70;3.30;;;;;21.30;98047.00;;;;2060375;28;20203;-56
2023/10/27 04:13:36;;;;;;;4.20;3.23;;;;;21.30;98051.00;;;;2055078;28;20227;-57
2023/10/27 04:14:36;;;;;;;3.87;3.47;;;;;21.30;98072.00;;;;2068221;28;20198;-56
2023/10/27 04:15:37;;;;;;;4.70;3.60;;;;;21.30;98045.00;;;;2051054;28;20664;-56
2023/10/27 04:16:37;;;;;;;4.90;3.23;;;;;21.30;98044.00;;;;2061602;28;20707;-57
2023/10/27 04:17:38;;;;;;;4.60;3.20;;;;;21.30;98041.00;;;;2061250;28;20217;-56
2023/10/27 04:18:38;;;;;;;4.93;3.00;;;;;21.30;97971.00;;;;2070061;28;20236;-57
2023/10/27 04:19:38;;;;;;;3.80;3.30;;;;;21.30;98037.00;;;;2068971;28;20214;-56
2023/10/27 04:20:39;;;;;;;4.50;3.60;;;;;21.30;98044.00;;;;2056806;28;20293;-57
2023/10/27 04:21:40;;;;;;;4.85;2.83;;;;;21.30;98039.00;;;;2050591;28;20208;-57
2023/10/27 04:22:40;;;;;;;4.03;2.80;;;;;21.30;98039.00;;;;2053421;28;20304;-56
2023/10/27 04:23:41;;;;;;;6.50;3.20;;;;;21.30;98032.00;;;;2062190;28;20211;-55
2023/10/27 04:24:41;;;;;;;5.00;3.37;;;;;21.30;98045.00;;;;2061469;28;20211;-55
2023/10/27 04:25:41;;;;;;;4.87;3.67;;;;;21.30;98039.00;;;;2049978;28;20235;-57
2023/10/27 04:26:42;;;;;;;4.10;3.07;;;;;21.30;98032.00;;;;2061433;28;20314;-57
2023/10/27 04:27:42;;;;;;;3.83;2.97;;;;;21.30;98036.00;;;;2061727;28;20592;-56
2023/10/27 04:28:42;;;;;;;4.17;2.73;;;;;21.30;98036.00;;;;2073638;28;20583;-56
2023/10/27 04:29:43;;;;;;;3.80;2.80;;;;;21.30;98039.00;;;;2068538;28;20210;-56
2023/10/27 04:30:43;;;;;;;3.10;2.77;;;;;21.30;98029.00;;;;2054654;28;20240;-55
2023/10/27 04:31:44;;;;;;;3.80;2.93;;;;;21.30;98026.00;;;;2068195;28;20217;-56
2023/10/27 04:32:45;;;;;;;4.40;2.90;;;;;21.30;98025.00;;;;2065260;28;20257;-57
2023/10/27 04:33:48;;;;;;;4.75;2.75;;;;;21.30;98031.00;;;;2066850;28;20317;-57
2023/10/27 04:34:48;;;;;;;4.88;2.92;;;;;21.30;98027.00;;;;2061212;28;20210;-57
2023/10/27 04:35:48;;;;;;;3.43;2.80;;;;;21.30;98036.00;;;;2049497;28;20215;-57
2023/10/27 04:36:49;;;;;;;5.60;3.30;;;;;21.30;98025.00;;;;2058004;28;20203;-56
2023/10/27 04:37:50;;;;;;;3.53;3.07;;;;;21.30;98029.00;;;;2062151;28;20210;-57
2023/10/27 04:38:51;;;;;;;3.45;2.85;;;;;21.30;98049.00;;;;2061724;28;20671;-57
2023/10/27 04:39:54;;;;;;;4.60;2.90;;;;;21.30;98032.00;;;;2066183;28;20269;-57
2023/10/27 04:40:55;;;;;;;3.58;2.80;;;;;21.30;98045.00;;;;2047284;28;20230;-57
2023/10/27 04:41:55;;;;;;;4.10;2.67;;;;;21.30;98040.00;;;;2056676;28;20229;-57
2023/10/27 04:42:58;;;;;;;3.53;3.03;;;;;21.30;98044.00;;;;2063096;28;20230;-57
2023/10/27 04:43:58;;;;;;;3.35;2.55;;;;;21.30;98042.00;;;;2068732;28;20222;-57
2023/10/27 04:44:58;;;;;;;3.47;2.60;;;;;21.30;98040.00;;;;2066513;28;20591;-57
2023/10/27 04:45:59;;;;;;;3.80;2.80;;;;;21.30;98038.00;;;;2051153;28;21213;-57
2023/10/27 04:46:59;;;;;;;3.87;2.70;;;;;21.30;98040.00;;;;2060703;28;20245;-57
2023/10/27 04:47:59;;;;;;;3.80;2.67;;;;;21.30;98039.00;;;;2061368;28;20227;-57
2023/10/27 04:49:00;;;;;;;2.83;2.53;;;;;21.30;98041.00;;;;2061240;28;20238;-56
2023/10/27 04:50:01;;;;;;;3.40;2.70;;;;;21.30;98035.00;;;;2062106;28;20225;-57
2023/10/27 04:51:04;;;;;;;5.30;2.53;;;;;21.30;98036.00;;;;2050794;28;20298;-57
2023/10/27 04:52:05;;;;;;;3.55;2.50;;;;;21.30;98038.00;;;;2059552;28;20222;-57
2023/10/27 04:53:06;;;;;;;3.97;2.70;;;;;21.30;98038.00;;;;2068657;28;20214;-57
2023/10/27 04:54:06;;;;;;;2.87;2.10;;;;;21.30;98035.00;;;;2068718;28;20244;-56
2023/10/27 04:55:07;;;;;;;4.33;2.90;;;;;21.30;98035.00;;;;2062698;28;20675;-57
2023/10/27 04:56:08;;;;;;;4.13;2.30;;;;;21.30;98029.00;;;;2058456;28;20222;-56
2023/10/27 04:57:08;;;;;;;5.13;2.67;;;;;21.30;98030.00;;;;2067756;28;20294;-57
2023/10/27 04:58:08;;;;;;;3.90;2.57;;;;;21.30;98031.00;;;;2061172;28;20278;-56
2023/10/27 04:59:09;;;;;;;2.90;2.40;;;;;21.30;98036.00;;;;2061388;28;20340;-56